sensor_id;sensor_type;location;lat;lon;timestamp;temperature;humidity
35559;DHT22;21661;50.794;-1.066;2023-07-28T00:00:50;18.00;99.90
35559;DHT22;21661;50.794;-1.066;2023-07-28T00:03:16;18.00;99.90
35559;DHT22;21661;50.794;-1.066;2023-07-28T00:05:41;18.00;99.90
35559;DHT22;21661;50.794;-1.066;2023-07-28T00:08:07;18.00;99.90
35559;DHT22;21661;50.794;-1.066;2023-07-28T00:10:32;18.00;99.90
35559;DHT22;21661;50.794;-1.066;2023-07-28T00:12:58;18.00;99.90
35559;DHT22;21661;50.794;-1.066;2023-07-28T00:15:24;18.00;99.90
35559;DHT22;21661;50.794;-1.066;2023-07-28T00:17:50;18.00;99.90
35559;DHT22;21661;50.794;-1.066;2023-07-28T00:20:15;18.00;99.90
35559;DHT22;21661;50.794;-1.066;2023-07-28T00:22:41;18.00;99.90
35559;DHT22;21661;50.794;-1.066;2023-07-28T00:25:07;18.00;99.90
35559;DHT22;21661;50.794;-1.066;2023-07-28T00:27:34;18.10;99.90
35559;DHT22;21661;50.794;-1.066;2023-07-28T00:30:00;18.00;99.90
35559;DHT22;21661;50.794;-1.066;2023-07-28T00:32:25;18.00;99.90
35559;DHT22;21661;50.794;-1.066;2023-07-28T00:34:51;18.10;99.90
35559;DHT22;21661;50.794;-1.066;2023-07-28T00:37:16;18.10;99.90
35559;DHT22;21661;50.794;-1.066;2023-07-28T00:39:42;18.10;99.90
35559;DHT22;21661;50.794;-1.066;2023-07-28T00:42:07;18.00;99.90
35559;DHT22;21661;50.794;-1.066;2023-07-28T00:44:34;18.10;99.90
35559;DHT22;21661;50.794;-1.066;2023-07-28T00:47:00;18.10;99.90
35559;DHT22;21661;50.794;-1.066;2023-07-28T00:49:26;18.10;99.90
35559;DHT22;21661;50.794;-1.066;2023-07-28T00:51:52;18.10;99.90
35559;DHT22;21661;50.794;-1.066;2023-07-28T00:54:18;18.10;99.90
35559;DHT22;21661;50.794;-1.066;2023-07-28T00:56:44;18.10;99.90
35559;DHT22;21661;50.794;-1.066;2023-07-28T00:59:10;18.10;99.90
35559;DHT22;21661;50.794;-1.066;2023-07-28T01:01:36;18.10;99.90
35559;DHT22;21661;50.794;-1.066;2023-07-28T01:04:02;18.10;99.90
35559;DHT22;21661;50.794;-1.066;2023-07-28T01:09:14;18.10;99.90
35559;DHT22;21661;50.794;-1.066;2023-07-28T01:11:57;18.10;99.90
35559;DHT22;21661;50.794;-1.066;2023-07-28T01:14:23;18.10;99.90
35559;DHT22;21661;50.794;-1.066;2023-07-28T01:16:49;18.10;99.90
35559;DHT22;21661;50.794;-1.066;2023-07-28T01:19:20;18.10;99.90
35559;DHT22;21661;50.794;-1.066;2023-07-28T01:21:48;18.10;99.90
35559;DHT22;21661;50.794;-1.066;2023-07-28T01:24:34;18.10;99.90
35559;DHT22;21661;50.794;-1.066;2023-07-28T01:27:06;18.10;99.90
35559;DHT22;21661;50.794;-1.066;2023-07-28T01:29:32;18.10;99.90
35559;DHT22;21661;50.794;-1.066;2023-07-28T01:31:59;18.10;99.90
35559;DHT22;21661;50.794;-1.066;2023-07-28T01:34:25;18.10;99.90
35559;DHT22;21661;50.794;-1.066;2023-07-28T01:36:50;18.10;99.90
35559;DHT22;21661;50.794;-1.066;2023-07-28T01:39:16;18.10;99.90
35559;DHT22;21661;50.794;-1.066;2023-07-28T01:41:42;18.10;99.90
35559;DHT22;21661;50.794;-1.066;2023-07-28T01:44:10;18.10;99.90
35559;DHT22;21661;50.794;-1.066;2023-07-28T01:46:36;18.00;99.90
35559;DHT22;21661;50.794;-1.066;2023-07-28T01:49:01;18.10;99.90
35559;DHT22;21661;50.794;-1.066;2023-07-28T01:51:27;18.10;99.90
35559;DHT22;21661;50.794;-1.066;2023-07-28T01:53:53;18.10;99.90
35559;DHT22;21661;50.794;-1.066;2023-07-28T01:56:18;18.10;99.90
35559;DHT22;21661;50.794;-1.066;2023-07-28T01:58:44;18.10;99.90
35559;DHT22;21661;50.794;-1.066;2023-07-28T02:01:12;18.10;99.90
35559;DHT22;21661;50.794;-1.066;2023-07-28T02:03:38;18.10;99.90
35559;DHT22;21661;50.794;-1.066;2023-07-28T02:06:04;18.10;99.90
35559;DHT22;21661;50.794;-1.066;2023-07-28T02:08:29;18.10;99.90
35559;DHT22;21661;50.794;-1.066;2023-07-28T02:10:55;18.10;99.90
35559;DHT22;21661;50.794;-1.066;2023-07-28T02:13:20;18.10;99.90
35559;DHT22;21661;50.794;-1.066;2023-07-28T02:15:46;18.20;99.90
35559;DHT22;21661;50.794;-1.066;2023-07-28T02:18:12;18.10;99.90
35559;DHT22;21661;50.794;-1.066;2023-07-28T02:20:37;18.10;99.90
35559;DHT22;21661;50.794;-1.066;2023-07-28T02:23:04;18.00;99.90
35559;DHT22;21661;50.794;-1.066;2023-07-28T02:25:30;18.00;99.90
35559;DHT22;21661;50.794;-1.066;2023-07-28T02:27:55;17.90;99.90
35559;DHT22;21661;50.794;-1.066;2023-07-28T02:30:21;17.90;99.90
35559;DHT22;21661;50.794;-1.066;2023-07-28T02:32:46;17.80;99.90
35559;DHT22;21661;50.794;-1.066;2023-07-28T02:35:12;17.80;99.90
35559;DHT22;21661;50.794;-1.066;2023-07-28T02:37:38;17.80;99.90
35559;DHT22;21661;50.794;-1.066;2023-07-28T02:40:04;17.70;99.90
35559;DHT22;21661;50.794;-1.066;2023-07-28T02:42:29;17.70;99.90
35559;DHT22;21661;50.794;-1.066;2023-07-28T02:44:56;17.60;99.90
35559;DHT22;21661;50.794;-1.066;2023-07-28T02:47:21;17.60;99.90
35559;DHT22;21661;50.794;-1.066;2023-07-28T02:49:47;17.60;99.90
35559;DHT22;21661;50.794;-1.066;2023-07-28T02:52:12;17.60;99.90
35559;DHT22;21661;50.794;-1.066;2023-07-28T02:54:38;17.60;99.90
35559;DHT22;21661;50.794;-1.066;2023-07-28T02:57:04;17.60;99.90
35559;DHT22;21661;50.794;-1.066;2023-07-28T02:59:29;17.60;99.90
35559;DHT22;21661;50.794;-1.066;2023-07-28T03:01:55;17.60;99.90
35559;DHT22;21661;50.794;-1.066;2023-07-28T03:04:22;17.60;99.90
35559;DHT22;21661;50.794;-1.066;2023-07-28T03:06:48;17.50;99.90
35559;DHT22;21661;50.794;-1.066;2023-07-28T03:09:13;17.60;99.90
35559;DHT22;21661;50.794;-1.066;2023-07-28T03:11:42;17.50;99.90
35559;DHT22;21661;50.794;-1.066;2023-07-28T03:14:07;17.50;99.90
35559;DHT22;21661;50.794;-1.066;2023-07-28T03:16:33;17.50;99.90
35559;DHT22;21661;50.794;-1.066;2023-07-28T03:18:58;17.50;99.90
35559;DHT22;21661;50.794;-1.066;2023-07-28T03:21:24;17.50;99.90
35559;DHT22;21661;50.794;-1.066;2023-07-28T03:23:50;17.50;99.90
35559;DHT22;21661;50.794;-1.066;2023-07-28T03:26:15;17.50;99.90
35559;DHT22;21661;50.794;-1.066;2023-07-28T03:28:41;17.50;99.90
35559;DHT22;21661;50.794;-1.066;2023-07-28T03:31:06;17.50;99.90
35559;DHT22;21661;50.794;-1.066;2023-07-28T03:33:32;17.50;99.90
35559;DHT22;21661;50.794;-1.066;2023-07-28T03:35:58;17.50;99.90
35559;DHT22;21661;50.794;-1.066;2023-07-28T03:38:23;17.50;99.90
35559;DHT22;21661;50.794;-1.066;2023-07-28T03:40:49;17.50;99.90
35559;DHT22;21661;50.794;-1.066;2023-07-28T03:43:15;17.50;99.90
35559;DHT22;21661;50.794;-1.066;2023-07-28T03:45:41;17.50;99.90
35559;DHT22;21661;50.794;-1.066;2023-07-28T03:48:07;17.40;99.90
35559;DHT22;21661;50.794;-1.066;2023-07-28T03:50:32;17.40;99.90
35559;DHT22;21661;50.794;-1.066;2023-07-28T03:52:58;17.30;99.90
35559;DHT22;21661;50.794;-1.066;2023-07-28T03:55:23;17.30;99.90
35559;DHT22;21661;50.794;-1.066;2023-07-28T03:57:49;17.30;99.90
35559;DHT22;21661;50.794;-1.066;2023-07-28T04:00:15;17.30;99.90
35559;DHT22;21661;50.794;-1.066;2023-07-28T04:02:42;17.30;99.90
35559;DHT22;21661;50.794;-1.066;2023-07-28T04:05:07;17.30;99.90
35559;DHT22;21661;50.794;-1.066;2023-07-28T04:07:33;17.30;99.90
35559;DHT22;21661;50.794;-1.066;2023-07-28T04:09:59;17.30;99.90
35559;DHT22;21661;50.794;-1.066;2023-07-28T04:12:24;17.30;99.90
35559;DHT22;21661;50.794;-1.066;2023-07-28T04:14:50;17.20;99.90
35559;DHT22;21661;50.794;-1.066;2023-07-28T04:17:15;17.30;99.90
35559;DHT22;21661;50.794;-1.066;2023-07-28T04:19:41;17.30;99.90
35559;DHT22;21661;50.794;-1.066;2023-07-28T04:22:06;17.30;99.90
35559;DHT22;21661;50.794;-1.066;2023-07-28T04:24:32;17.30;99.90
35559;DHT22;21661;50.794;-1.066;2023-07-28T04:26:58;17.20;99.90
35559;DHT22;21661;50.794;-1.066;2023-07-28T04:29:23;17.20;99.90
35559;DHT22;21661;50.794;-1.066;2023-07-28T04:31:49;17.30;99.90
35559;DHT22;21661;50.794;-1.066;2023-07-28T04:34:15;17.20;99.90
35559;DHT22;21661;50.794;-1.066;2023-07-28T04:36:40;17.20;99.90
35559;DHT22;21661;50.794;-1.066;2023-07-28T04:39:06;17.30;99.90
35559;DHT22;21661;50.794;-1.066;2023-07-28T04:41:31;17.20;99.90
35559;DHT22;21661;50.794;-1.066;2023-07-28T04:43:57;17.20;99.90
35559;DHT22;21661;50.794;-1.066;2023-07-28T04:46:23;17.30;99.90
35559;DHT22;21661;50.794;-1.066;2023-07-28T04:48:48;17.20;99.90
35559;DHT22;21661;50.794;-1.066;2023-07-28T04:51:14;17.20;99.90
35559;DHT22;21661;50.794;-1.066;2023-07-28T04:53:39;17.20;99.90
35559;DHT22;21661;50.794;-1.066;2023-07-28T04:56:05;17.30;99.90
35559;DHT22;21661;50.794;-1.066;2023-07-28T04:58:30;17.20;99.90
35559;DHT22;21661;50.794;-1.066;2023-07-28T05:00:56;17.20;99.90
35559;DHT22;21661;50.794;-1.066;2023-07-28T05:03:24;17.20;99.90
35559;DHT22;21661;50.794;-1.066;2023-07-28T05:05:50;17.20;99.90
35559;DHT22;21661;50.794;-1.066;2023-07-28T05:08:15;17.20;99.90
35559;DHT22;21661;50.794;-1.066;2023-07-28T05:10:41;17.20;99.90
35559;DHT22;21661;50.794;-1.066;2023-07-28T05:13:08;17.10;99.90
35559;DHT22;21661;50.794;-1.066;2023-07-28T05:15:34;17.10;99.90
35559;DHT22;21661;50.794;-1.066;2023-07-28T05:18:00;17.10;99.90
35559;DHT22;21661;50.794;-1.066;2023-07-28T05:20:25;17.10;99.90
35559;DHT22;21661;50.794;-1.066;2023-07-28T05:22:51;17.10;99.90
35559;DHT22;21661;50.794;-1.066;2023-07-28T05:25:17;17.10;99.90
35559;DHT22;21661;50.794;-1.066;2023-07-28T05:27:42;17.20;99.90
35559;DHT22;21661;50.794;-1.066;2023-07-28T05:30:08;17.10;99.90
35559;DHT22;21661;50.794;-1.066;2023-07-28T05:32:34;17.20;99.90
35559;DHT22;21661;50.794;-1.066;2023-07-28T05:34:59;17.20;99.90
35559;DHT22;21661;50.794;-1.066;2023-07-28T05:37:25;17.20;99.90
35559;DHT22;21661;50.794;-1.066;2023-07-28T05:39:50;17.20;99.90
35559;DHT22;21661;50.794;-1.066;2023-07-28T05:42:16;17.20;99.90
35559;DHT22;21661;50.794;-1.066;2023-07-28T05:44:42;17.30;99.90
35559;DHT22;21661;50.794;-1.066;2023-07-28T05:47:07;17.20;99.90
35559;DHT22;21661;50.794;-1.066;2023-07-28T05:49:33;17.30;99.90
35559;DHT22;21661;50.794;-1.066;2023-07-28T05:51:59;17.30;99.90
35559;DHT22;21661;50.794;-1.066;2023-07-28T05:54:24;17.30;99.90
35559;DHT22;21661;50.794;-1.066;2023-07-28T05:56:50;17.40;99.90
35559;DHT22;21661;50.794;-1.066;2023-07-28T05:59:16;17.40;99.90
35559;DHT22;21661;50.794;-1.066;2023-07-28T06:01:41;17.40;99.90
35559;DHT22;21661;50.794;-1.066;2023-07-28T06:04:07;17.50;99.90
35559;DHT22;21661;50.794;-1.066;2023-07-28T06:06:33;17.50;99.90
35559;DHT22;21661;50.794;-1.066;2023-07-28T06:08:58;17.60;99.90
35559;DHT22;21661;50.794;-1.066;2023-07-28T06:11:24;17.60;99.90
35559;DHT22;21661;50.794;-1.066;2023-07-28T06:13:49;17.60;99.90
35559;DHT22;21661;50.794;-1.066;2023-07-28T06:16:15;17.60;99.90
35559;DHT22;21661;50.794;-1.066;2023-07-28T06:18:41;17.60;99.90
35559;DHT22;21661;50.794;-1.066;2023-07-28T06:21:07;17.60;99.90
35559;DHT22;21661;50.794;-1.066;2023-07-28T06:23:33;17.60;99.90
35559;DHT22;21661;50.794;-1.066;2023-07-28T06:25:59;17.50;99.90
35559;DHT22;21661;50.794;-1.066;2023-07-28T06:28:24;17.50;99.90
35559;DHT22;21661;50.794;-1.066;2023-07-28T06:30:54;17.50;99.90
35559;DHT22;21661;50.794;-1.066;2023-07-28T06:33:20;17.50;99.90
35559;DHT22;21661;50.794;-1.066;2023-07-28T06:35:46;17.40;99.90
35559;DHT22;21661;50.794;-1.066;2023-07-28T06:38:12;17.40;99.90
35559;DHT22;21661;50.794;-1.066;2023-07-28T06:40:37;17.50;99.90
35559;DHT22;21661;50.794;-1.066;2023-07-28T06:43:03;17.40;99.90
35559;DHT22;21661;50.794;-1.066;2023-07-28T06:45:28;17.40;99.90
35559;DHT22;21661;50.794;-1.066;2023-07-28T06:47:54;17.30;99.90
35559;DHT22;21661;50.794;-1.066;2023-07-28T06:50:20;17.30;99.90
35559;DHT22;21661;50.794;-1.066;2023-07-28T06:52:45;17.30;99.90
35559;DHT22;21661;50.794;-1.066;2023-07-28T06:55:14;17.30;99.90
35559;DHT22;21661;50.794;-1.066;2023-07-28T06:57:39;17.30;99.90
35559;DHT22;21661;50.794;-1.066;2023-07-28T07:00:06;17.30;99.90
35559;DHT22;21661;50.794;-1.066;2023-07-28T07:02:34;17.30;99.90
35559;DHT22;21661;50.794;-1.066;2023-07-28T07:05:00;17.30;99.90
35559;DHT22;21661;50.794;-1.066;2023-07-28T07:07:25;17.30;99.90
35559;DHT22;21661;50.794;-1.066;2023-07-28T07:09:52;17.40;99.90
35559;DHT22;21661;50.794;-1.066;2023-07-28T07:12:17;17.40;99.90
35559;DHT22;21661;50.794;-1.066;2023-07-28T07:14:44;17.50;99.90
35559;DHT22;21661;50.794;-1.066;2023-07-28T07:17:10;17.50;99.90
35559;DHT22;21661;50.794;-1.066;2023-07-28T07:19:35;17.50;99.90
35559;DHT22;21661;50.794;-1.066;2023-07-28T07:22:01;17.60;99.90
35559;DHT22;21661;50.794;-1.066;2023-07-28T07:24:27;17.60;99.90
35559;DHT22;21661;50.794;-1.066;2023-07-28T07:26:53;17.70;99.90
35559;DHT22;21661;50.794;-1.066;2023-07-28T07:29:18;17.70;99.90
35559;DHT22;21661;50.794;-1.066;2023-07-28T07:31:44;17.80;99.90
35559;DHT22;21661;50.794;-1.066;2023-07-28T07:34:09;17.80;99.90
35559;DHT22;21661;50.794;-1.066;2023-07-28T07:36:35;17.90;99.90
35559;DHT22;21661;50.794;-1.066;2023-07-28T07:39:00;17.90;99.90
35559;DHT22;21661;50.794;-1.066;2023-07-28T07:41:26;18.00;99.90
35559;DHT22;21661;50.794;-1.066;2023-07-28T07:43:54;18.00;99.90
35559;DHT22;21661;50.794;-1.066;2023-07-28T07:46:20;18.10;99.90
35559;DHT22;21661;50.794;-1.066;2023-07-28T07:48:46;18.20;99.90
35559;DHT22;21661;50.794;-1.066;2023-07-28T07:51:12;18.30;99.90
35559;DHT22;21661;50.794;-1.066;2023-07-28T07:53:37;18.40;99.90
35559;DHT22;21661;50.794;-1.066;2023-07-28T07:56:04;18.40;99.90
35559;DHT22;21661;50.794;-1.066;2023-07-28T07:58:30;18.50;99.90
35559;DHT22;21661;50.794;-1.066;2023-07-28T08:00:56;18.60;99.90
35559;DHT22;21661;50.794;-1.066;2023-07-28T08:03:21;18.60;99.90
35559;DHT22;21661;50.794;-1.066;2023-07-28T08:05:47;18.60;99.90
35559;DHT22;21661;50.794;-1.066;2023-07-28T08:08:13;18.60;99.90
35559;DHT22;21661;50.794;-1.066;2023-07-28T08:10:43;18.70;99.90
35559;DHT22;21661;50.794;-1.066;2023-07-28T08:13:09;18.70;99.90
35559;DHT22;21661;50.794;-1.066;2023-07-28T08:15:35;18.80;99.90
35559;DHT22;21661;50.794;-1.066;2023-07-28T08:18:00;18.80;99.90
35559;DHT22;21661;50.794;-1.066;2023-07-28T08:20:26;18.80;99.90
35559;DHT22;21661;50.794;-1.066;2023-07-28T08:22:52;18.90;99.90
35559;DHT22;21661;50.794;-1.066;2023-07-28T08:25:18;19.00;99.90
35559;DHT22;21661;50.794;-1.066;2023-07-28T08:27:44;18.90;99.90
35559;DHT22;21661;50.794;-1.066;2023-07-28T08:30:10;19.00;99.90
35559;DHT22;21661;50.794;-1.066;2023-07-28T08:32:36;19.00;99.90
35559;DHT22;21661;50.794;-1.066;2023-07-28T08:35:02;19.10;99.90
35559;DHT22;21661;50.794;-1.066;2023-07-28T08:37:28;19.10;99.90
35559;DHT22;21661;50.794;-1.066;2023-07-28T08:39:54;19.10;99.90
35559;DHT22;21661;50.794;-1.066;2023-07-28T08:42:21;19.10;99.90
35559;DHT22;21661;50.794;-1.066;2023-07-28T08:44:48;19.20;99.90
35559;DHT22;21661;50.794;-1.066;2023-07-28T08:47:17;19.20;99.90
35559;DHT22;21661;50.794;-1.066;2023-07-28T08:49:43;19.30;99.90
35559;DHT22;21661;50.794;-1.066;2023-07-28T08:52:08;19.40;99.90
35559;DHT22;21661;50.794;-1.066;2023-07-28T08:54:34;19.40;99.90
35559;DHT22;21661;50.794;-1.066;2023-07-28T08:57:00;19.50;99.90
35559;DHT22;21661;50.794;-1.066;2023-07-28T08:59:28;19.60;99.90
35559;DHT22;21661;50.794;-1.066;2023-07-28T09:01:55;19.70;99.90
35559;DHT22;21661;50.794;-1.066;2023-07-28T09:04:22;19.80;99.90
35559;DHT22;21661;50.794;-1.066;2023-07-28T09:06:49;19.90;99.90
35559;DHT22;21661;50.794;-1.066;2023-07-28T09:09:15;19.80;99.90
35559;DHT22;21661;50.794;-1.066;2023-07-28T09:11:48;19.80;99.90
35559;DHT22;21661;50.794;-1.066;2023-07-28T09:14:16;19.80;99.90
35559;DHT22;21661;50.794;-1.066;2023-07-28T09:16:43;19.80;99.90
35559;DHT22;21661;50.794;-1.066;2023-07-28T09:19:09;19.70;99.90
35559;DHT22;21661;50.794;-1.066;2023-07-28T09:21:38;19.60;99.90
35559;DHT22;21661;50.794;-1.066;2023-07-28T09:24:04;19.40;99.90
35559;DHT22;21661;50.794;-1.066;2023-07-28T09:26:42;19.30;99.90
35559;DHT22;21661;50.794;-1.066;2023-07-28T09:29:17;19.30;99.90
35559;DHT22;21661;50.794;-1.066;2023-07-28T09:31:47;19.30;99.90
35559;DHT22;21661;50.794;-1.066;2023-07-28T09:34:26;19.50;99.90
35559;DHT22;21661;50.794;-1.066;2023-07-28T09:36:56;19.40;99.90
35559;DHT22;21661;50.794;-1.066;2023-07-28T09:39:22;19.40;99.90
35559;DHT22;21661;50.794;-1.066;2023-07-28T09:41:48;19.40;99.90
35559;DHT22;21661;50.794;-1.066;2023-07-28T09:44:14;19.30;99.90
35559;DHT22;21661;50.794;-1.066;2023-07-28T09:46:54;19.20;99.90
35559;DHT22;21661;50.794;-1.066;2023-07-28T09:49:27;19.40;99.90
35559;DHT22;21661;50.794;-1.066;2023-07-28T09:51:54;19.40;99.90
35559;DHT22;21661;50.794;-1.066;2023-07-28T09:54:28;19.50;99.90
35559;DHT22;21661;50.794;-1.066;2023-07-28T09:56:59;19.50;99.90
35559;DHT22;21661;50.794;-1.066;2023-07-28T09:59:45;19.60;99.90
35559;DHT22;21661;50.794;-1.066;2023-07-28T10:02:12;19.30;99.90
35559;DHT22;21661;50.794;-1.066;2023-07-28T10:04:38;19.10;99.90
35559;DHT22;21661;50.794;-1.066;2023-07-28T10:07:07;19.00;99.90
35559;DHT22;21661;50.794;-1.066;2023-07-28T10:09:33;19.10;99.90
35559;DHT22;21661;50.794;-1.066;2023-07-28T10:12:00;19.20;99.90
35559;DHT22;21661;50.794;-1.066;2023-07-28T10:14:27;19.20;99.90
35559;DHT22;21661;50.794;-1.066;2023-07-28T10:16:54;19.30;99.90
35559;DHT22;21661;50.794;-1.066;2023-07-28T10:19:20;19.40;99.90
35559;DHT22;21661;50.794;-1.066;2023-07-28T10:21:46;19.50;99.90
35559;DHT22;21661;50.794;-1.066;2023-07-28T10:24:12;19.60;99.90
35559;DHT22;21661;50.794;-1.066;2023-07-28T10:26:39;19.60;99.90
35559;DHT22;21661;50.794;-1.066;2023-07-28T10:29:15;19.70;99.90
35559;DHT22;21661;50.794;-1.066;2023-07-28T10:31:54;19.70;99.90
35559;DHT22;21661;50.794;-1.066;2023-07-28T10:34:22;19.80;99.90
35559;DHT22;21661;50.794;-1.066;2023-07-28T10:36:59;19.90;99.90
35559;DHT22;21661;50.794;-1.066;2023-07-28T10:39:25;20.00;99.90
35559;DHT22;21661;50.794;-1.066;2023-07-28T10:42:05;20.00;99.90
35559;DHT22;21661;50.794;-1.066;2023-07-28T10:44:32;20.00;99.90
35559;DHT22;21661;50.794;-1.066;2023-07-28T10:46:58;20.10;99.90
35559;DHT22;21661;50.794;-1.066;2023-07-28T10:49:25;20.20;99.90
35559;DHT22;21661;50.794;-1.066;2023-07-28T10:51:51;20.40;99.90
35559;DHT22;21661;50.794;-1.066;2023-07-28T10:54:16;20.50;99.90
35559;DHT22;21661;50.794;-1.066;2023-07-28T10:56:46;20.80;99.90
35559;DHT22;21661;50.794;-1.066;2023-07-28T10:59:11;20.70;99.90
35559;DHT22;21661;50.794;-1.066;2023-07-28T11:01:39;20.70;99.90
35559;DHT22;21661;50.794;-1.066;2023-07-28T11:04:12;20.80;99.90
35559;DHT22;21661;50.794;-1.066;2023-07-28T11:06:41;20.70;99.90
35559;DHT22;21661;50.794;-1.066;2023-07-28T11:09:08;20.70;99.90
35559;DHT22;21661;50.794;-1.066;2023-07-28T11:11:36;20.70;99.90
35559;DHT22;21661;50.794;-1.066;2023-07-28T11:14:04;20.70;99.90
35559;DHT22;21661;50.794;-1.066;2023-07-28T11:16:32;20.90;99.90
35559;DHT22;21661;50.794;-1.066;2023-07-28T11:19:02;21.10;99.90
35559;DHT22;21661;50.794;-1.066;2023-07-28T11:21:29;21.20;99.90
35559;DHT22;21661;50.794;-1.066;2023-07-28T11:23:55;21.30;99.90
35559;DHT22;21661;50.794;-1.066;2023-07-28T11:26:21;21.30;99.90
35559;DHT22;21661;50.794;-1.066;2023-07-28T11:28:48;21.40;99.90
35559;DHT22;21661;50.794;-1.066;2023-07-28T11:31:14;21.40;99.90
35559;DHT22;21661;50.794;-1.066;2023-07-28T11:33:40;21.50;99.90
35559;DHT22;21661;50.794;-1.066;2023-07-28T11:36:06;21.50;99.90
35559;DHT22;21661;50.794;-1.066;2023-07-28T11:38:33;21.50;99.90
35559;DHT22;21661;50.794;-1.066;2023-07-28T11:41:00;21.60;99.90
35559;DHT22;21661;50.794;-1.066;2023-07-28T11:43:27;21.60;99.90
35559;DHT22;21661;50.794;-1.066;2023-07-28T11:45:53;21.60;99.90
35559;DHT22;21661;50.794;-1.066;2023-07-28T11:48:18;21.60;99.90
35559;DHT22;21661;50.794;-1.066;2023-07-28T11:50:44;21.50;99.90
35559;DHT22;21661;50.794;-1.066;2023-07-28T11:53:11;21.50;99.90
35559;DHT22;21661;50.794;-1.066;2023-07-28T11:55:39;21.50;99.90
35559;DHT22;21661;50.794;-1.066;2023-07-28T11:58:06;21.40;99.90
35559;DHT22;21661;50.794;-1.066;2023-07-28T12:00:33;21.40;99.90
35559;DHT22;21661;50.794;-1.066;2023-07-28T12:03:05;21.50;99.90
35559;DHT22;21661;50.794;-1.066;2023-07-28T12:05:32;21.60;99.90
35559;DHT22;21661;50.794;-1.066;2023-07-28T12:07:58;21.50;99.90
35559;DHT22;21661;50.794;-1.066;2023-07-28T12:10:24;21.60;99.90
35559;DHT22;21661;50.794;-1.066;2023-07-28T12:12:50;21.80;99.90
35559;DHT22;21661;50.794;-1.066;2023-07-28T12:18:08;21.80;99.90
35559;DHT22;21661;50.794;-1.066;2023-07-28T12:23:07;22.00;99.90
35559;DHT22;21661;50.794;-1.066;2023-07-28T12:25:35;22.00;99.90
35559;DHT22;21661;50.794;-1.066;2023-07-28T12:28:02;22.00;99.90
35559;DHT22;21661;50.794;-1.066;2023-07-28T12:30:28;22.00;99.90
35559;DHT22;21661;50.794;-1.066;2023-07-28T12:32:54;22.00;99.90
35559;DHT22;21661;50.794;-1.066;2023-07-28T12:35:19;22.00;99.90
35559;DHT22;21661;50.794;-1.066;2023-07-28T12:37:51;22.00;99.90
35559;DHT22;21661;50.794;-1.066;2023-07-28T12:40:18;22.00;99.90
35559;DHT22;21661;50.794;-1.066;2023-07-28T12:42:45;22.00;99.90
35559;DHT22;21661;50.794;-1.066;2023-07-28T12:45:12;22.10;99.90
35559;DHT22;21661;50.794;-1.066;2023-07-28T12:47:38;22.20;99.90
35559;DHT22;21661;50.794;-1.066;2023-07-28T12:50:04;22.30;99.90
35559;DHT22;21661;50.794;-1.066;2023-07-28T12:52:31;22.40;99.90
35559;DHT22;21661;50.794;-1.066;2023-07-28T12:54:57;22.40;99.90
35559;DHT22;21661;50.794;-1.066;2023-07-28T12:57:24;22.40;99.90
35559;DHT22;21661;50.794;-1.066;2023-07-28T12:59:49;22.40;99.90
35559;DHT22;21661;50.794;-1.066;2023-07-28T13:02:15;22.40;99.90
35559;DHT22;21661;50.794;-1.066;2023-07-28T13:04:41;22.40;99.90
35559;DHT22;21661;50.794;-1.066;2023-07-28T13:07:06;22.30;99.90
35559;DHT22;21661;50.794;-1.066;2023-07-28T13:09:32;22.30;99.90
35559;DHT22;21661;50.794;-1.066;2023-07-28T13:11:58;22.30;99.90
35559;DHT22;21661;50.794;-1.066;2023-07-28T13:14:24;22.40;99.90
35559;DHT22;21661;50.794;-1.066;2023-07-28T13:16:50;22.40;99.90
35559;DHT22;21661;50.794;-1.066;2023-07-28T13:19:16;22.40;99.90
35559;DHT22;21661;50.794;-1.066;2023-07-28T13:21:42;22.50;99.90
35559;DHT22;21661;50.794;-1.066;2023-07-28T13:24:07;22.50;99.90
35559;DHT22;21661;50.794;-1.066;2023-07-28T13:26:33;22.70;99.90
35559;DHT22;21661;50.794;-1.066;2023-07-28T13:28:59;22.70;99.90
35559;DHT22;21661;50.794;-1.066;2023-07-28T13:31:27;22.70;99.90
35559;DHT22;21661;50.794;-1.066;2023-07-28T13:33:53;22.60;99.90
35559;DHT22;21661;50.794;-1.066;2023-07-28T13:36:18;22.60;99.90
35559;DHT22;21661;50.794;-1.066;2023-07-28T13:38:44;22.60;99.90
35559;DHT22;21661;50.794;-1.066;2023-07-28T13:41:10;22.50;99.90
35559;DHT22;21661;50.794;-1.066;2023-07-28T13:43:36;22.70;99.90
35559;DHT22;21661;50.794;-1.066;2023-07-28T13:46:03;22.70;99.90
35559;DHT22;21661;50.794;-1.066;2023-07-28T13:48:30;22.70;99.90
35559;DHT22;21661;50.794;-1.066;2023-07-28T13:50:56;22.70;99.90
35559;DHT22;21661;50.794;-1.066;2023-07-28T13:53:23;22.80;99.90
35559;DHT22;21661;50.794;-1.066;2023-07-28T13:55:48;22.80;99.90
35559;DHT22;21661;50.794;-1.066;2023-07-28T13:58:14;22.70;99.90
35559;DHT22;21661;50.794;-1.066;2023-07-28T14:00:40;22.80;99.90
35559;DHT22;21661;50.794;-1.066;2023-07-28T14:03:05;22.70;99.90
35559;DHT22;21661;50.794;-1.066;2023-07-28T14:05:31;22.50;99.90
35559;DHT22;21661;50.794;-1.066;2023-07-28T14:07:57;22.50;99.90
35559;DHT22;21661;50.794;-1.066;2023-07-28T14:10:22;22.40;99.90
35559;DHT22;21661;50.794;-1.066;2023-07-28T14:12:49;22.30;99.90
35559;DHT22;21661;50.794;-1.066;2023-07-28T14:15:15;22.20;99.90
35559;DHT22;21661;50.794;-1.066;2023-07-28T14:17:40;22.00;99.90
35559;DHT22;21661;50.794;-1.066;2023-07-28T14:20:06;22.00;99.90
35559;DHT22;21661;50.794;-1.066;2023-07-28T14:22:32;21.90;99.90
35559;DHT22;21661;50.794;-1.066;2023-07-28T14:24:58;22.00;99.90
35559;DHT22;21661;50.794;-1.066;2023-07-28T14:27:23;22.10;99.90
35559;DHT22;21661;50.794;-1.066;2023-07-28T14:29:49;22.10;99.90
35559;DHT22;21661;50.794;-1.066;2023-07-28T14:32:14;22.10;99.90
35559;DHT22;21661;50.794;-1.066;2023-07-28T14:34:40;22.10;99.90
35559;DHT22;21661;50.794;-1.066;2023-07-28T14:37:08;22.10;99.90
35559;DHT22;21661;50.794;-1.066;2023-07-28T14:39:34;22.10;99.90
35559;DHT22;21661;50.794;-1.066;2023-07-28T14:41:59;22.10;99.90
35559;DHT22;21661;50.794;-1.066;2023-07-28T14:44:25;22.00;99.90
35559;DHT22;21661;50.794;-1.066;2023-07-28T14:46:51;22.10;99.90
35559;DHT22;21661;50.794;-1.066;2023-07-28T14:49:16;22.20;99.90
35559;DHT22;21661;50.794;-1.066;2023-07-28T14:51:42;22.30;99.90
35559;DHT22;21661;50.794;-1.066;2023-07-28T14:54:07;22.10;99.90
35559;DHT22;21661;50.794;-1.066;2023-07-28T14:56:33;22.10;99.90
35559;DHT22;21661;50.794;-1.066;2023-07-28T14:58:59;22.00;99.90
35559;DHT22;21661;50.794;-1.066;2023-07-28T15:01:26;22.20;99.90
35559;DHT22;21661;50.794;-1.066;2023-07-28T15:03:52;22.30;99.90
35559;DHT22;21661;50.794;-1.066;2023-07-28T15:06:18;22.30;99.90
35559;DHT22;21661;50.794;-1.066;2023-07-28T15:08:43;22.10;99.90
35559;DHT22;21661;50.794;-1.066;2023-07-28T15:11:09;22.10;99.90
35559;DHT22;21661;50.794;-1.066;2023-07-28T15:13:35;21.90;99.90
35559;DHT22;21661;50.794;-1.066;2023-07-28T15:16:00;22.00;99.90
35559;DHT22;21661;50.794;-1.066;2023-07-28T15:18:26;22.00;99.90